Navarino, Wisconsin
Current Conditions -  °F | °C
As of 4:35 AM on Thursday 23 Oct 2014 (Local Time) from KEZS Reporting Station
Haze Haze  
Wind Chill:   Ceiling: 700
Heat Index:   Visibility: 1.7mi
Dew Point:   Wind: 0mph
Humidity: 94%   Direction: NA
Pressure: 30.18"   Gusts: NA
Location:  44.7353°N, 88.4379°W
Report Text: KEZS 230935Z AUTO 00000KT 1 3/4SM BR VV007 02/01 A3018 RMK AO2 T00210013
Loading
Personal Weather Stations






























Interactive Weather Map
Tropical Storm Tracking
New forecast layout! Learn more

10-Day Weather Forecast

Advertisements
Track Severe Weather on mobile